sensor_id;sensor_type;location;lat;lon;timestamp;P1;durP1;ratioP1;P2;durP2;ratioP2
14817;SDS011;7500;57.698;11.986;2023-03-25T00:02:04;27.93;;;5.43;;
14817;SDS011;7500;57.698;11.986;2023-03-25T00:05:31;27.37;;;4.77;;
14817;SDS011;7500;57.698;11.986;2023-03-25T00:08:58;31.23;;;4.90;;
14817;SDS011;7500;57.698;11.986;2023-03-25T00:12:24;26.17;;;4.63;;
14817;SDS011;7500;57.698;11.986;2023-03-25T00:15:50;27.47;;;4.60;;
14817;SDS011;7500;57.698;11.986;2023-03-25T00:19:17;20.77;;;4.67;;
14817;SDS011;7500;57.698;11.986;2023-03-25T00:22:44;23.37;;;4.07;;
14817;SDS011;7500;57.698;11.986;2023-03-25T00:26:10;22.37;;;5.10;;
14817;SDS011;7500;57.698;11.986;2023-03-25T00:29:35;28.17;;;5.27;;
14817;SDS011;7500;57.698;11.986;2023-03-25T00:33:02;22.40;;;3.90;;
14817;SDS011;7500;57.698;11.986;2023-03-25T00:36:28;20.27;;;3.93;;
14817;SDS011;7500;57.698;11.986;2023-03-25T00:39:55;28.73;;;5.37;;
14817;SDS011;7500;57.698;11.986;2023-03-25T00:43:21;28.30;;;4.83;;
14817;SDS011;7500;57.698;11.986;2023-03-25T00:46:46;30.83;;;4.70;;
14817;SDS011;7500;57.698;11.986;2023-03-25T00:50:11;28.63;;;5.33;;
14817;SDS011;7500;57.698;11.986;2023-03-25T00:53:38;33.33;;;5.50;;
14817;SDS011;7500;57.698;11.986;2023-03-25T00:57:05;24.40;;;4.50;;
14817;SDS011;7500;57.698;11.986;2023-03-25T01:00:30;27.97;;;4.80;;
14817;SDS011;7500;57.698;11.986;2023-03-25T01:03:56;26.17;;;5.70;;
14817;SDS011;7500;57.698;11.986;2023-03-25T01:07:24;28.50;;;5.90;;
14817;SDS011;7500;57.698;11.986;2023-03-25T01:10:53;27.87;;;5.03;;
14817;SDS011;7500;57.698;11.986;2023-03-25T01:14:21;21.60;;;3.30;;
14817;SDS011;7500;57.698;11.986;2023-03-25T01:17:46;23.23;;;4.53;;
14817;SDS011;7500;57.698;11.986;2023-03-25T01:21:12;24.77;;;4.00;;
14817;SDS011;7500;57.698;11.986;2023-03-25T01:24:37;26.40;;;4.67;;
14817;SDS011;7500;57.698;11.986;2023-03-25T01:28:03;27.13;;;3.70;;
14817;SDS011;7500;57.698;11.986;2023-03-25T01:31:30;24.87;;;4.13;;
14817;SDS011;7500;57.698;11.986;2023-03-25T01:34:55;25.87;;;4.50;;
14817;SDS011;7500;57.698;11.986;2023-03-25T01:38:21;25.53;;;4.33;;
14817;SDS011;7500;57.698;11.986;2023-03-25T01:41:47;22.97;;;4.30;;
14817;SDS011;7500;57.698;11.986;2023-03-25T01:45:23;27.23;;;4.77;;
14817;SDS011;7500;57.698;11.986;2023-03-25T01:48:51;25.23;;;4.10;;
14817;SDS011;7500;57.698;11.986;2023-03-25T01:52:19;24.60;;;4.50;;
14817;SDS011;7500;57.698;11.986;2023-03-25T01:55:47;20.10;;;3.93;;
14817;SDS011;7500;57.698;11.986;2023-03-25T01:59:15;21.50;;;3.80;;
14817;SDS011;7500;57.698;11.986;2023-03-25T02:02:43;28.27;;;6.27;;
14817;SDS011;7500;57.698;11.986;2023-03-25T02:06:13;23.40;;;3.67;;
14817;SDS011;7500;57.698;11.986;2023-03-25T02:09:40;23.77;;;4.20;;
14817;SDS011;7500;57.698;11.986;2023-03-25T02:13:06;30.77;;;4.50;;
14817;SDS011;7500;57.698;11.986;2023-03-25T02:16:35;24.53;;;3.90;;
14817;SDS011;7500;57.698;11.986;2023-03-25T02:28:20;21.97;;;3.83;;
14817;SDS011;7500;57.698;11.986;2023-03-25T02:31:54;25.07;;;4.63;;
14817;SDS011;7500;57.698;11.986;2023-03-25T02:35:50;29.17;;;4.30;;
14817;SDS011;7500;57.698;11.986;2023-03-25T02:39:31;27.20;;;5.13;;
14817;SDS011;7500;57.698;11.986;2023-03-25T02:43:02;32.43;;;4.67;;
14817;SDS011;7500;57.698;11.986;2023-03-25T02:46:32;26.97;;;4.87;;
14817;SDS011;7500;57.698;11.986;2023-03-25T02:50:02;25.57;;;5.00;;
14817;SDS011;7500;57.698;11.986;2023-03-25T02:53:32;26.07;;;5.00;;
14817;SDS011;7500;57.698;11.986;2023-03-25T02:57:03;20.87;;;3.97;;
14817;SDS011;7500;57.698;11.986;2023-03-25T03:00:33;26.17;;;4.53;;
14817;SDS011;7500;57.698;11.986;2023-03-25T03:03:59;25.30;;;4.70;;
14817;SDS011;7500;57.698;11.986;2023-03-25T03:07:25;30.07;;;4.30;;
14817;SDS011;7500;57.698;11.986;2023-03-25T03:11:01;27.43;;;5.37;;
14817;SDS011;7500;57.698;11.986;2023-03-25T03:14:41;20.50;;;4.03;;
14817;SDS011;7500;57.698;11.986;2023-03-25T03:18:13;20.03;;;4.27;;
14817;SDS011;7500;57.698;11.986;2023-03-25T03:21:53;26.20;;;4.37;;
14817;SDS011;7500;57.698;11.986;2023-03-25T03:25:27;33.17;;;4.83;;
14817;SDS011;7500;57.698;11.986;2023-03-25T03:29:04;27.80;;;5.10;;
14817;SDS011;7500;57.698;11.986;2023-03-25T03:32:36;28.97;;;4.30;;
14817;SDS011;7500;57.698;11.986;2023-03-25T03:36:07;25.33;;;4.30;;
14817;SDS011;7500;57.698;11.986;2023-03-25T03:39:37;20.40;;;3.87;;
14817;SDS011;7500;57.698;11.986;2023-03-25T03:43:05;32.93;;;5.73;;
14817;SDS011;7500;57.698;11.986;2023-03-25T03:46:35;34.43;;;5.87;;
14817;SDS011;7500;57.698;11.986;2023-03-25T03:50:05;31.77;;;4.50;;
14817;SDS011;7500;57.698;11.986;2023-03-25T03:53:35;25.43;;;4.80;;
14817;SDS011;7500;57.698;11.986;2023-03-25T03:57:06;23.87;;;5.00;;
14817;SDS011;7500;57.698;11.986;2023-03-25T04:00:40;31.60;;;4.80;;
14817;SDS011;7500;57.698;11.986;2023-03-25T04:04:10;31.13;;;5.30;;
14817;SDS011;7500;57.698;11.986;2023-03-25T04:07:40;32.77;;;4.93;;
14817;SDS011;7500;57.698;11.986;2023-03-25T04:11:18;39.77;;;4.23;;
14817;SDS011;7500;57.698;11.986;2023-03-25T04:14:48;40.93;;;5.20;;
14817;SDS011;7500;57.698;11.986;2023-03-25T04:18:14;34.63;;;5.30;;
14817;SDS011;7500;57.698;11.986;2023-03-25T04:21:42;32.93;;;4.90;;
14817;SDS011;7500;57.698;11.986;2023-03-25T04:25:09;39.43;;;5.60;;
14817;SDS011;7500;57.698;11.986;2023-03-25T04:28:36;42.40;;;5.20;;
14817;SDS011;7500;57.698;11.986;2023-03-25T04:32:05;27.93;;;4.63;;
14817;SDS011;7500;57.698;11.986;2023-03-25T04:35:31;30.80;;;5.03;;
14817;SDS011;7500;57.698;11.986;2023-03-25T04:38:57;35.37;;;4.93;;
14817;SDS011;7500;57.698;11.986;2023-03-25T04:42:25;35.83;;;5.07;;
14817;SDS011;7500;57.698;11.986;2023-03-25T04:45:50;35.10;;;4.80;;
14817;SDS011;7500;57.698;11.986;2023-03-25T04:49:19;25.90;;;4.93;;
14817;SDS011;7500;57.698;11.986;2023-03-25T04:52:46;37.57;;;5.73;;
14817;SDS011;7500;57.698;11.986;2023-03-25T04:56:13;39.27;;;5.37;;
14817;SDS011;7500;57.698;11.986;2023-03-25T04:59:39;25.67;;;4.70;;
14817;SDS011;7500;57.698;11.986;2023-03-25T05:03:04;38.03;;;5.37;;
14817;SDS011;7500;57.698;11.986;2023-03-25T05:06:32;34.53;;;5.43;;
14817;SDS011;7500;57.698;11.986;2023-03-25T05:09:58;34.83;;;5.07;;
14817;SDS011;7500;57.698;11.986;2023-03-25T05:13:23;39.73;;;5.03;;
14817;SDS011;7500;57.698;11.986;2023-03-25T05:16:50;40.87;;;4.93;;
14817;SDS011;7500;57.698;11.986;2023-03-25T05:20:15;28.40;;;4.57;;
14817;SDS011;7500;57.698;11.986;2023-03-25T05:23:42;40.83;;;5.80;;
14817;SDS011;7500;57.698;11.986;2023-03-25T05:27:09;30.97;;;4.57;;
14817;SDS011;7500;57.698;11.986;2023-03-25T05:30:38;32.80;;;5.77;;
14817;SDS011;7500;57.698;11.986;2023-03-25T05:34:03;30.90;;;5.10;;
14817;SDS011;7500;57.698;11.986;2023-03-25T05:37:29;34.23;;;5.93;;
14817;SDS011;7500;57.698;11.986;2023-03-25T05:40:58;38.33;;;5.47;;
14817;SDS011;7500;57.698;11.986;2023-03-25T05:44:27;37.83;;;5.67;;
14817;SDS011;7500;57.698;11.986;2023-03-25T05:47:52;39.07;;;5.73;;
14817;SDS011;7500;57.698;11.986;2023-03-25T05:51:18;41.83;;;5.90;;
14817;SDS011;7500;57.698;11.986;2023-03-25T05:54:44;45.33;;;5.80;;
14817;SDS011;7500;57.698;11.986;2023-03-25T05:58:12;36.90;;;6.30;;
14817;SDS011;7500;57.698;11.986;2023-03-25T06:01:38;45.03;;;6.47;;
14817;SDS011;7500;57.698;11.986;2023-03-25T06:05:07;32.03;;;5.20;;
14817;SDS011;7500;57.698;11.986;2023-03-25T06:08:38;48.87;;;5.50;;
14817;SDS011;7500;57.698;11.986;2023-03-25T06:12:10;35.53;;;6.00;;
14817;SDS011;7500;57.698;11.986;2023-03-25T06:15:36;41.70;;;6.20;;
14817;SDS011;7500;57.698;11.986;2023-03-25T06:19:02;33.87;;;5.27;;
14817;SDS011;7500;57.698;11.986;2023-03-25T06:22:35;28.33;;;4.97;;
14817;SDS011;7500;57.698;11.986;2023-03-25T06:26:03;39.90;;;6.03;;
14817;SDS011;7500;57.698;11.986;2023-03-25T06:29:29;32.17;;;5.20;;
14817;SDS011;7500;57.698;11.986;2023-03-25T06:32:56;36.27;;;5.17;;
14817;SDS011;7500;57.698;11.986;2023-03-25T06:36:21;33.87;;;5.40;;
14817;SDS011;7500;57.698;11.986;2023-03-25T06:39:50;35.63;;;5.07;;
14817;SDS011;7500;57.698;11.986;2023-03-25T06:43:15;28.30;;;5.00;;
14817;SDS011;7500;57.698;11.986;2023-03-25T06:46:41;31.93;;;5.40;;
14817;SDS011;7500;57.698;11.986;2023-03-25T06:50:08;26.87;;;5.10;;
14817;SDS011;7500;57.698;11.986;2023-03-25T06:53:34;34.07;;;5.33;;
14817;SDS011;7500;57.698;11.986;2023-03-25T06:56:59;33.23;;;5.37;;
14817;SDS011;7500;57.698;11.986;2023-03-25T07:00:25;33.90;;;5.23;;
14817;SDS011;7500;57.698;11.986;2023-03-25T07:03:50;31.57;;;4.97;;
14817;SDS011;7500;57.698;11.986;2023-03-25T07:07:17;22.07;;;5.23;;
14817;SDS011;7500;57.698;11.986;2023-03-25T07:10:43;34.07;;;5.87;;
14817;SDS011;7500;57.698;11.986;2023-03-25T07:14:08;34.57;;;5.10;;
14817;SDS011;7500;57.698;11.986;2023-03-25T07:17:34;36.60;;;5.47;;
14817;SDS011;7500;57.698;11.986;2023-03-25T07:21:00;33.87;;;6.00;;
14817;SDS011;7500;57.698;11.986;2023-03-25T07:24:27;42.90;;;5.53;;
14817;SDS011;7500;57.698;11.986;2023-03-25T07:27:52;33.73;;;5.73;;
14817;SDS011;7500;57.698;11.986;2023-03-25T07:31:17;35.00;;;5.83;;
14817;SDS011;7500;57.698;11.986;2023-03-25T07:34:43;34.93;;;5.67;;
14817;SDS011;7500;57.698;11.986;2023-03-25T07:38:08;34.83;;;5.33;;
14817;SDS011;7500;57.698;11.986;2023-03-25T07:41:35;21.50;;;4.63;;
14817;SDS011;7500;57.698;11.986;2023-03-25T07:45:01;29.63;;;4.70;;
14817;SDS011;7500;57.698;11.986;2023-03-25T07:48:27;28.83;;;5.07;;
14817;SDS011;7500;57.698;11.986;2023-03-25T07:51:52;27.93;;;5.20;;
14817;SDS011;7500;57.698;11.986;2023-03-25T07:55:18;32.37;;;5.67;;
14817;SDS011;7500;57.698;11.986;2023-03-25T07:58:44;32.27;;;5.07;;
14817;SDS011;7500;57.698;11.986;2023-03-25T08:02:11;29.33;;;5.17;;
14817;SDS011;7500;57.698;11.986;2023-03-25T08:05:37;26.73;;;5.85;;
14817;SDS011;7500;57.698;11.986;2023-03-25T08:09:02;30.93;;;5.00;;
14817;SDS011;7500;57.698;11.986;2023-03-25T08:12:28;29.93;;;5.93;;
14817;SDS011;7500;57.698;11.986;2023-03-25T08:15:54;33.17;;;5.40;;
14817;SDS011;7500;57.698;11.986;2023-03-25T08:19:20;27.70;;;5.50;;
14817;SDS011;7500;57.698;11.986;2023-03-25T08:22:46;30.73;;;5.40;;
14817;SDS011;7500;57.698;11.986;2023-03-25T08:26:11;20.73;;;5.57;;
14817;SDS011;7500;57.698;11.986;2023-03-25T08:29:37;29.73;;;5.77;;
14817;SDS011;7500;57.698;11.986;2023-03-25T08:33:04;26.77;;;5.27;;
14817;SDS011;7500;57.698;11.986;2023-03-25T08:36:30;28.37;;;4.93;;
14817;SDS011;7500;57.698;11.986;2023-03-25T08:39:59;31.60;;;4.73;;
14817;SDS011;7500;57.698;11.986;2023-03-25T08:43:24;21.80;;;4.73;;
14817;SDS011;7500;57.698;11.986;2023-03-25T08:46:50;27.43;;;4.93;;
14817;SDS011;7500;57.698;11.986;2023-03-25T08:50:17;28.93;;;5.97;;
14817;SDS011;7500;57.698;11.986;2023-03-25T08:53:42;31.03;;;5.27;;
14817;SDS011;7500;57.698;11.986;2023-03-25T08:57:08;20.47;;;4.03;;
14817;SDS011;7500;57.698;11.986;2023-03-25T09:00:33;25.67;;;5.03;;
14817;SDS011;7500;57.698;11.986;2023-03-25T09:03:58;26.60;;;5.13;;
14817;SDS011;7500;57.698;11.986;2023-03-25T09:07:25;32.40;;;4.87;;
14817;SDS011;7500;57.698;11.986;2023-03-25T09:10:53;30.77;;;4.53;;
14817;SDS011;7500;57.698;11.986;2023-03-25T09:14:18;30.00;;;5.40;;
14817;SDS011;7500;57.698;11.986;2023-03-25T09:17:45;25.40;;;4.80;;
14817;SDS011;7500;57.698;11.986;2023-03-25T09:21:10;23.87;;;4.37;;
14817;SDS011;7500;57.698;11.986;2023-03-25T09:24:37;31.60;;;5.20;;
14817;SDS011;7500;57.698;11.986;2023-03-25T09:28:02;29.70;;;5.80;;
14817;SDS011;7500;57.698;11.986;2023-03-25T09:31:28;24.00;;;5.17;;
14817;SDS011;7500;57.698;11.986;2023-03-25T09:34:53;25.37;;;5.13;;
14817;SDS011;7500;57.698;11.986;2023-03-25T09:38:19;24.60;;;4.70;;
14817;SDS011;7500;57.698;11.986;2023-03-25T09:41:49;23.23;;;4.93;;
14817;SDS011;7500;57.698;11.986;2023-03-25T09:45:34;26.40;;;5.00;;
14817;SDS011;7500;57.698;11.986;2023-03-25T09:49:02;18.60;;;4.50;;
14817;SDS011;7500;57.698;11.986;2023-03-25T09:52:31;25.50;;;5.43;;
14817;SDS011;7500;57.698;11.986;2023-03-25T09:56:03;28.27;;;5.07;;
14817;SDS011;7500;57.698;11.986;2023-03-25T09:59:35;33.70;;;4.97;;
14817;SDS011;7500;57.698;11.986;2023-03-25T10:03:10;19.77;;;4.30;;
14817;SDS011;7500;57.698;11.986;2023-03-25T10:07:01;21.80;;;4.33;;
14817;SDS011;7500;57.698;11.986;2023-03-25T10:10:38;24.10;;;5.30;;
14817;SDS011;7500;57.698;11.986;2023-03-25T10:14:15;26.67;;;5.37;;
14817;SDS011;7500;57.698;11.986;2023-03-25T10:17:50;27.23;;;5.03;;
14817;SDS011;7500;57.698;11.986;2023-03-25T10:21:24;25.70;;;5.10;;
14817;SDS011;7500;57.698;11.986;2023-03-25T10:24:55;22.83;;;4.87;;
14817;SDS011;7500;57.698;11.986;2023-03-25T10:28:26;23.83;;;4.73;;
14817;SDS011;7500;57.698;11.986;2023-03-25T10:31:56;26.27;;;4.37;;
14817;SDS011;7500;57.698;11.986;2023-03-25T10:35:24;22.40;;;4.43;;
14817;SDS011;7500;57.698;11.986;2023-03-25T10:38:56;19.10;;;4.37;;
14817;SDS011;7500;57.698;11.986;2023-03-25T10:42:25;22.93;;;4.10;;
14817;SDS011;7500;57.698;11.986;2023-03-25T10:45:54;26.87;;;5.27;;
14817;SDS011;7500;57.698;11.986;2023-03-25T10:49:24;16.17;;;3.67;;
14817;SDS011;7500;57.698;11.986;2023-03-25T10:52:51;23.90;;;3.97;;
14817;SDS011;7500;57.698;11.986;2023-03-25T10:56:18;19.53;;;3.90;;
14817;SDS011;7500;57.698;11.986;2023-03-25T10:59:49;24.17;;;4.40;;
14817;SDS011;7500;57.698;11.986;2023-03-25T11:03:20;17.23;;;3.60;;
14817;SDS011;7500;57.698;11.986;2023-03-25T11:06:50;16.67;;;3.63;;
14817;SDS011;7500;57.698;11.986;2023-03-25T11:10:19;19.20;;;3.33;;
14817;SDS011;7500;57.698;11.986;2023-03-25T11:13:46;20.17;;;3.80;;
14817;SDS011;7500;57.698;11.986;2023-03-25T11:17:19;21.33;;;3.83;;
14817;SDS011;7500;57.698;11.986;2023-03-25T11:20:50;22.17;;;4.10;;
14817;SDS011;7500;57.698;11.986;2023-03-25T11:24:18;18.17;;;3.87;;
14817;SDS011;7500;57.698;11.986;2023-03-25T11:27:50;15.70;;;3.97;;
14817;SDS011;7500;57.698;11.986;2023-03-25T11:31:18;19.00;;;4.13;;
14817;SDS011;7500;57.698;11.986;2023-03-25T11:34:49;17.20;;;3.80;;
14817;SDS011;7500;57.698;11.986;2023-03-25T11:38:18;22.20;;;4.27;;
14817;SDS011;7500;57.698;11.986;2023-03-25T11:41:44;17.37;;;4.27;;
14817;SDS011;7500;57.698;11.986;2023-03-25T11:45:20;19.40;;;3.77;;
14817;SDS011;7500;57.698;11.986;2023-03-25T11:48:47;18.37;;;3.33;;
14817;SDS011;7500;57.698;11.986;2023-03-25T11:52:16;14.73;;;3.67;;
14817;SDS011;7500;57.698;11.986;2023-03-25T11:55:43;10.93;;;3.10;;
14817;SDS011;7500;57.698;11.986;2023-03-25T11:59:17;12.57;;;3.27;;
14817;SDS011;7500;57.698;11.986;2023-03-25T12:02:57;10.37;;;2.93;;
14817;SDS011;7500;57.698;11.986;2023-03-25T12:06:59;14.53;;;2.93;;
14817;SDS011;7500;57.698;11.986;2023-03-25T12:10:47;14.17;;;3.50;;
14817;SDS011;7500;57.698;11.986;2023-03-25T12:14:22;15.03;;;3.07;;
14817;SDS011;7500;57.698;11.986;2023-03-25T12:17:59;11.33;;;3.17;;
14817;SDS011;7500;57.698;11.986;2023-03-25T12:21:43;14.37;;;3.57;;
14817;SDS011;7500;57.698;11.986;2023-03-25T12:25:23;12.13;;;2.77;;
14817;SDS011;7500;57.698;11.986;2023-03-25T12:29:02;13.67;;;2.80;;
14817;SDS011;7500;57.698;11.986;2023-03-25T12:32:39;8.30;;;3.20;;
14817;SDS011;7500;57.698;11.986;2023-03-25T12:36:19;8.77;;;2.83;;
14817;SDS011;7500;57.698;11.986;2023-03-25T12:39:58;6.67;;;2.90;;
14817;SDS011;7500;57.698;11.986;2023-03-25T12:43:40;14.57;;;3.37;;
14817;SDS011;7500;57.698;11.986;2023-03-25T12:47:19;15.80;;;3.70;;
14817;SDS011;7500;57.698;11.986;2023-03-25T12:50:58;15.87;;;3.97;;
14817;SDS011;7500;57.698;11.986;2023-03-25T12:54:32;11.97;;;2.90;;
14817;SDS011;7500;57.698;11.986;2023-03-25T12:58:09;10.63;;;2.90;;
14817;SDS011;7500;57.698;11.986;2023-03-25T13:01:52;13.27;;;3.23;;
14817;SDS011;7500;57.698;11.986;2023-03-25T13:05:33;13.80;;;3.33;;
14817;SDS011;7500;57.698;11.986;2023-03-25T13:09:07;17.80;;;3.90;;
14817;SDS011;7500;57.698;11.986;2023-03-25T13:12:41;18.10;;;4.37;;
14817;SDS011;7500;57.698;11.986;2023-03-25T13:16:12;18.47;;;4.90;;
14817;SDS011;7500;57.698;11.986;2023-03-25T13:19:52;20.57;;;4.87;;
14817;SDS011;7500;57.698;11.986;2023-03-25T13:23:24;17.50;;;5.03;;
14817;SDS011;7500;57.698;11.986;2023-03-25T13:26:56;24.53;;;5.53;;
14817;SDS011;7500;57.698;11.986;2023-03-25T13:30:30;19.80;;;5.03;;
14817;SDS011;7500;57.698;11.986;2023-03-25T13:34:02;17.33;;;4.97;;
14817;SDS011;7500;57.698;11.986;2023-03-25T13:37:33;20.87;;;5.10;;
14817;SDS011;7500;57.698;11.986;2023-03-25T13:41:07;17.87;;;5.07;;
14817;SDS011;7500;57.698;11.986;2023-03-25T13:44:39;19.37;;;5.20;;
14817;SDS011;7500;57.698;11.986;2023-03-25T13:48:11;20.30;;;5.20;;
14817;SDS011;7500;57.698;11.986;2023-03-25T13:51:43;16.90;;;4.67;;
14817;SDS011;7500;57.698;11.986;2023-03-25T13:55:14;21.23;;;5.33;;
14817;SDS011;7500;57.698;11.986;2023-03-25T13:58:58;22.40;;;4.67;;
14817;SDS011;7500;57.698;11.986;2023-03-25T14:02:53;17.13;;;4.93;;
14817;SDS011;7500;57.698;11.986;2023-03-25T14:06:54;16.10;;;4.37;;
14817;SDS011;7500;57.698;11.986;2023-03-25T14:10:52;22.77;;;4.43;;
14817;SDS011;7500;57.698;11.986;2023-03-25T14:14:22;17.53;;;4.27;;
14817;SDS011;7500;57.698;11.986;2023-03-25T14:17:49;16.07;;;4.37;;
14817;SDS011;7500;57.698;11.986;2023-03-25T14:21:29;18.57;;;4.27;;
14817;SDS011;7500;57.698;11.986;2023-03-25T14:24:58;15.00;;;5.17;;
14817;SDS011;7500;57.698;11.986;2023-03-25T14:28:32;13.93;;;4.60;;
14817;SDS011;7500;57.698;11.986;2023-03-25T14:32:03;20.27;;;4.87;;
14817;SDS011;7500;57.698;11.986;2023-03-25T14:39:42;18.10;;;4.67;;
14817;SDS011;7500;57.698;11.986;2023-03-25T14:43:17;15.60;;;4.47;;
14817;SDS011;7500;57.698;11.986;2023-03-25T14:46:44;21.27;;;4.93;;
14817;SDS011;7500;57.698;11.986;2023-03-25T14:50:28;18.97;;;4.03;;
14817;SDS011;7500;57.698;11.986;2023-03-25T14:54:15;19.00;;;4.23;;
14817;SDS011;7500;57.698;11.986;2023-03-25T14:57:44;17.83;;;5.33;;
14817;SDS011;7500;57.698;11.986;2023-03-25T15:01:13;12.63;;;3.87;;
14817;SDS011;7500;57.698;11.986;2023-03-25T15:04:42;7.73;;;2.90;;
14817;SDS011;7500;57.698;11.986;2023-03-25T15:08:12;7.13;;;1.93;;
14817;SDS011;7500;57.698;11.986;2023-03-25T15:11:41;7.33;;;1.80;;
14817;SDS011;7500;57.698;11.986;2023-03-25T15:15:23;5.50;;;1.63;;
14817;SDS011;7500;57.698;11.986;2023-03-25T15:18:58;2.40;;;1.40;;
14817;SDS011;7500;57.698;11.986;2023-03-25T15:26:35;2.23;;;1.30;;
14817;SDS011;7500;57.698;11.986;2023-03-25T15:30:13;2.93;;;1.40;;
14817;SDS011;7500;57.698;11.986;2023-03-25T15:37:59;10.80;;;6.70;;
14817;SDS011;7500;57.698;11.986;2023-03-25T15:45:38;5.20;;;1.50;;
14817;SDS011;7500;57.698;11.986;2023-03-25T15:49:29;2.50;;;0.80;;
14817;SDS011;7500;57.698;11.986;2023-03-25T15:53:21;2.87;;;1.10;;
14817;SDS011;7500;57.698;11.986;2023-03-25T15:56:57;1.37;;;0.70;;
14817;SDS011;7500;57.698;11.986;2023-03-25T16:00:28;2.23;;;0.90;;
14817;SDS011;7500;57.698;11.986;2023-03-25T16:03:57;2.40;;;1.40;;
14817;SDS011;7500;57.698;11.986;2023-03-25T16:07:25;2.10;;;1.50;;
14817;SDS011;7500;57.698;11.986;2023-03-25T16:10:53;5.03;;;3.20;;
14817;SDS011;7500;57.698;11.986;2023-03-25T16:14:27;5.13;;;2.30;;
14817;SDS011;7500;57.698;11.986;2023-03-25T16:17:55;2.50;;;1.30;;
14817;SDS011;7500;57.698;11.986;2023-03-25T16:21:21;2.23;;;0.70;;
14817;SDS011;7500;57.698;11.986;2023-03-25T16:24:50;0.70;;;0.60;;
14817;SDS011;7500;57.698;11.986;2023-03-25T16:28:18;2.60;;;0.87;;
14817;SDS011;7500;57.698;11.986;2023-03-25T16:31:51;4.37;;;0.83;;
14817;SDS011;7500;57.698;11.986;2023-03-25T16:35:20;1.83;;;1.10;;
14817;SDS011;7500;57.698;11.986;2023-03-25T16:38:47;1.90;;;1.63;;
14817;SDS011;7500;57.698;11.986;2023-03-25T16:42:17;2.40;;;0.90;;
14817;SDS011;7500;57.698;11.986;2023-03-25T16:45:45;2.20;;;1.00;;
14817;SDS011;7500;57.698;11.986;2023-03-25T16:49:14;3.07;;;1.10;;
14817;SDS011;7500;57.698;11.986;2023-03-25T16:52:43;1.53;;;0.93;;
14817;SDS011;7500;57.698;11.986;2023-03-25T16:56:20;1.87;;;1.10;;
14817;SDS011;7500;57.698;11.986;2023-03-25T16:59:48;3.53;;;1.63;;
14817;SDS011;7500;57.698;11.986;2023-03-25T17:03:17;1.93;;;0.87;;
14817;SDS011;7500;57.698;11.986;2023-03-25T17:06:46;2.57;;;0.80;;
14817;SDS011;7500;57.698;11.986;2023-03-25T17:10:15;2.43;;;0.80;;
14817;SDS011;7500;57.698;11.986;2023-03-25T17:13:42;1.70;;;0.93;;
14817;SDS011;7500;57.698;11.986;2023-03-25T17:17:15;1.80;;;1.17;;
14817;SDS011;7500;57.698;11.986;2023-03-25T17:20:46;1.60;;;0.97;;
14817;SDS011;7500;57.698;11.986;2023-03-25T17:24:26;2.03;;;0.97;;
14817;SDS011;7500;57.698;11.986;2023-03-25T17:27:53;2.93;;;1.40;;
14817;SDS011;7500;57.698;11.986;2023-03-25T17:31:25;4.87;;;1.60;;
14817;SDS011;7500;57.698;11.986;2023-03-25T17:34:55;1.20;;;0.90;;
14817;SDS011;7500;57.698;11.986;2023-03-25T17:38:23;3.13;;;1.43;;
14817;SDS011;7500;57.698;11.986;2023-03-25T17:41:52;3.00;;;1.30;;
14817;SDS011;7500;57.698;11.986;2023-03-25T17:45:20;2.67;;;1.23;;
14817;SDS011;7500;57.698;11.986;2023-03-25T17:48:46;2.73;;;1.33;;
14817;SDS011;7500;57.698;11.986;2023-03-25T17:52:14;2.90;;;1.30;;
14817;SDS011;7500;57.698;11.986;2023-03-25T17:55:39;2.00;;;1.10;;
14817;SDS011;7500;57.698;11.986;2023-03-25T17:59:05;2.57;;;1.10;;
14817;SDS011;7500;57.698;11.986;2023-03-25T18:02:35;2.33;;;1.57;;
14817;SDS011;7500;57.698;11.986;2023-03-25T18:06:00;2.90;;;1.73;;
14817;SDS011;7500;57.698;11.986;2023-03-25T18:09:28;5.10;;;1.53;;
14817;SDS011;7500;57.698;11.986;2023-03-25T18:12:54;3.27;;;1.50;;
14817;SDS011;7500;57.698;11.986;2023-03-25T18:16:20;2.97;;;1.43;;
14817;SDS011;7500;57.698;11.986;2023-03-25T18:19:46;2.97;;;1.87;;
14817;SDS011;7500;57.698;11.986;2023-03-25T18:23:12;2.80;;;1.63;;
14817;SDS011;7500;57.698;11.986;2023-03-25T18:26:40;2.87;;;1.37;;
14817;SDS011;7500;57.698;11.986;2023-03-25T18:30:12;2.37;;;1.40;;
14817;SDS011;7500;57.698;11.986;2023-03-25T18:33:41;2.60;;;1.00;;
14817;SDS011;7500;57.698;11.986;2023-03-25T18:37:08;1.10;;;0.80;;
14817;SDS011;7500;57.698;11.986;2023-03-25T18:40:39;3.30;;;1.10;;
14817;SDS011;7500;57.698;11.986;2023-03-25T18:44:05;2.90;;;0.87;;
14817;SDS011;7500;57.698;11.986;2023-03-25T18:47:31;2.07;;;0.80;;
14817;SDS011;7500;57.698;11.986;2023-03-25T18:50:57;2.00;;;1.30;;
14817;SDS011;7500;57.698;11.986;2023-03-25T18:54:23;2.03;;;1.30;;
14817;SDS011;7500;57.698;11.986;2023-03-25T18:57:48;1.87;;;1.47;;
14817;SDS011;7500;57.698;11.986;2023-03-25T19:01:15;2.27;;;1.50;;
14817;SDS011;7500;57.698;11.986;2023-03-25T19:04:41;3.60;;;1.70;;
14817;SDS011;7500;57.698;11.986;2023-03-25T19:08:09;2.40;;;1.57;;
14817;SDS011;7500;57.698;11.986;2023-03-25T19:11:42;3.07;;;1.67;;
14817;SDS011;7500;57.698;11.986;2023-03-25T19:15:08;4.50;;;2.27;;
14817;SDS011;7500;57.698;11.986;2023-03-25T19:18:36;3.43;;;1.70;;
14817;SDS011;7500;57.698;11.986;2023-03-25T19:22:02;4.77;;;1.90;;
14817;SDS011;7500;57.698;11.986;2023-03-25T19:25:28;5.17;;;2.33;;
14817;SDS011;7500;57.698;11.986;2023-03-25T19:28:53;3.10;;;2.10;;
14817;SDS011;7500;57.698;11.986;2023-03-25T19:32:19;3.73;;;3.07;;
14817;SDS011;7500;57.698;11.986;2023-03-25T19:35:49;5.33;;;3.60;;
14817;SDS011;7500;57.698;11.986;2023-03-25T19:39:15;5.03;;;3.50;;
14817;SDS011;7500;57.698;11.986;2023-03-25T19:42:43;2.23;;;1.83;;
14817;SDS011;7500;57.698;11.986;2023-03-25T19:46:09;1.77;;;1.60;;
14817;SDS011;7500;57.698;11.986;2023-03-25T19:49:34;3.17;;;1.10;;
14817;SDS011;7500;57.698;11.986;2023-03-25T19:53:02;1.20;;;1.03;;
14817;SDS011;7500;57.698;11.986;2023-03-25T19:56:29;1.63;;;1.00;;
14817;SDS011;7500;57.698;11.986;2023-03-25T19:59:54;0.83;;;0.83;;
14817;SDS011;7500;57.698;11.986;2023-03-25T20:03:19;0.87;;;0.80;;
14817;SDS011;7500;57.698;11.986;2023-03-25T20:06:45;0.90;;;0.70;;
14817;SDS011;7500;57.698;11.986;2023-03-25T20:10:14;0.80;;;0.77;;
14817;SDS011;7500;57.698;11.986;2023-03-25T20:13:40;1.00;;;0.63;;
14817;SDS011;7500;57.698;11.986;2023-03-25T20:17:05;0.80;;;0.80;;
14817;SDS011;7500;57.698;11.986;2023-03-25T20:20:31;1.60;;;0.80;;
14817;SDS011;7500;57.698;11.986;2023-03-25T20:23:57;0.70;;;0.70;;
14817;SDS011;7500;57.698;11.986;2023-03-25T20:27:24;1.13;;;0.83;;
14817;SDS011;7500;57.698;11.986;2023-03-25T20:30:49;0.80;;;0.60;;
14817;SDS011;7500;57.698;11.986;2023-03-25T20:34:15;0.60;;;0.60;;
14817;SDS011;7500;57.698;11.986;2023-03-25T20:37:41;0.50;;;0.50;;
14817;SDS011;7500;57.698;11.986;2023-03-25T20:41:07;0.53;;;0.50;;
14817;SDS011;7500;57.698;11.986;2023-03-25T20:44:34;0.80;;;0.80;;
14817;SDS011;7500;57.698;11.986;2023-03-25T20:48:00;0.30;;;0.30;;
14817;SDS011;7500;57.698;11.986;2023-03-25T20:51:26;1.17;;;0.77;;
14817;SDS011;7500;57.698;11.986;2023-03-25T20:54:52;0.43;;;0.40;;
14817;SDS011;7500;57.698;11.986;2023-03-25T20:58:18;1.67;;;0.40;;
14817;SDS011;7500;57.698;11.986;2023-03-25T21:01:46;1.07;;;0.73;;
14817;SDS011;7500;57.698;11.986;2023-03-25T21:05:11;0.50;;;0.50;;
14817;SDS011;7500;57.698;11.986;2023-03-25T21:08:38;0.50;;;0.50;;
14817;SDS011;7500;57.698;11.986;2023-03-25T21:12:04;0.40;;;0.40;;
14817;SDS011;7500;57.698;11.986;2023-03-25T21:15:29;1.37;;;0.67;;